Time;durP1;ratioP1;P1;durP2;ratioP2;P2;SDS_P1;SDS_P2;PMS_P1;PMS_P2;Temp;Humidity;BMP_temperature;BMP_pressure;BME280_temperature;BME280_humidity;BME280_pressure;Samples;Min_cycle;Max_cycle;Signal;HPM_P1;HPM_P2
2021/08/18 00:01:09;;;;;;;7.85;7.00;;;;;;;13.49;95.84;100738.00;4941945;28;20055;-82
2021/08/18 00:03:36;;;;;;;7.78;6.97;;;;;;;13.49;96.17;100741.53;4929081;28;20050;-81
2021/08/18 00:06:02;;;;;;;8.65;7.35;;;;;;;13.53;96.03;100740.56;4958422;28;20057;-81
2021/08/18 00:08:29;;;;;;;7.90;5.88;;;;;;;13.57;96.18;100746.59;4941621;28;20050;-81
2021/08/18 00:10:55;;;;;;;7.22;6.60;;;;;;;13.60;96.07;100746.56;4943453;28;20062;-83
2021/08/18 00:13:24;;;;;;;7.38;6.05;;;;;;;13.65;95.69;100741.19;4927830;28;20054;-81
2021/08/18 00:15:52;;;;;;;6.85;6.30;;;;;;;13.69;95.46;100733.22;4940099;28;20101;-81
2021/08/18 00:18:19;;;;;;;5.90;5.30;;;;;;;13.73;95.37;100732.25;4940687;29;20058;-80
2021/08/18 00:20:46;;;;;;;7.15;6.45;;;;;;;13.73;95.37;100729.63;4922508;29;20655;-81
2021/08/18 00:23:13;;;;;;;6.45;5.30;;;;;;;13.73;95.55;100736.66;4939200;28;20110;-84
2021/08/18 00:25:39;;;;;;;8.00;6.82;;;;;;;13.74;95.71;100735.78;4921872;29;20608;-83
2021/08/18 00:28:06;;;;;;;6.32;5.47;;;;;;;13.72;95.74;100738.41;4939466;28;20047;-80
2021/08/18 00:30:33;;;;;;;7.15;5.53;;;;;;;13.72;96.05;100734.94;4923513;28;20050;-83
2021/08/18 00:33:00;;;;;;;4.97;4.57;;;;;;;13.75;96.04;100737.47;4941133;28;20099;-82
2021/08/18 00:35:27;;;;;;;5.60;5.10;;;;;;;13.78;96.38;100737.44;4924648;29;20482;-80
2021/08/18 00:37:53;;;;;;;5.63;5.15;;;;;;;13.78;95.98;100737.44;4936304;28;20051;-81
2021/08/18 00:40:20;;;;;;;5.45;5.05;;;;;;;13.81;96.42;100734.72;4938466;28;20450;-80
2021/08/18 00:42:48;;;;;;;5.10;4.60;;;;;;;13.79;96.15;100733.88;4939736;28;20063;-81
2021/08/18 00:45:16;;;;;;;5.10;4.60;;;;;;;13.78;96.64;100731.28;4939816;28;20047;-81
2021/08/18 00:47:46;;;;;;;6.25;4.75;;;;;;;13.77;96.69;100732.22;4924733;29;20047;-81
2021/08/18 00:50:17;;;;;;;5.35;4.85;;;;;;;13.76;96.85;100723.44;4952948;28;20058;-81
2021/08/18 00:52:47;;;;;;;7.07;5.78;;;;;;;13.78;96.92;100718.13;4919937;28;20054;-84
2021/08/18 00:55:16;;;;;;;4.88;4.38;;;;;;;13.78;97.12;100715.50;4945362;28;20071;-86
2021/08/18 00:57:43;;;;;;;7.30;5.75;;;;;;;13.77;97.25;100724.31;4927947;28;20070;-85
2021/08/18 01:00:14;;;;;;;6.13;4.55;;;;;;;13.76;97.69;100717.31;4930978;28;20051;-82
2021/08/18 01:02:43;;;;;;;6.60;5.45;;;;;;;13.72;97.49;100716.50;4947040;28;20134;-84
2021/08/18 01:05:17;;;;;;;5.88;5.10;;;;;;;13.71;97.48;100718.28;4949322;28;20491;-87
2021/08/18 01:07:47;;;;;;;6.57;4.97;;;;;;;13.69;98.07;100714.81;4962652;28;20055;-83
2021/08/18 01:10:17;;;;;;;6.72;5.50;;;;;;;13.70;97.91;100715.66;4946492;28;20131;-83
2021/08/18 01:12:44;;;;;;;6.22;5.25;;;;;;;13.66;98.19;100711.38;4933809;28;20057;-83
2021/08/18 01:15:15;;;;;;;7.38;5.43;;;;;;;13.64;98.01;100695.63;4944660;28;20047;-85
2021/08/18 01:17:49;;;;;;;5.97;5.38;;;;;;;13.66;98.12;100709.63;4946748;28;20079;-84
2021/08/18 01:20:22;;;;;;;;;;;;;;;13.65;98.35;100704.38;4945021;28;20050;-84
2021/08/18 01:22:50;;;;;;;6.65;5.25;;;;;;;13.66;98.76;100701.72;4933280;28;20100;-84
2021/08/18 01:25:17;;;;;;;6.65;5.57;;;;;;;13.66;98.23;100707.00;4945855;28;20046;-82
2021/08/18 01:27:53;;;;;;;8.50;5.57;;;;;;;13.64;98.66;100707.91;4930843;28;20051;-83
2021/08/18 01:30:22;;;;;;;5.72;5.03;;;;;;;13.66;98.31;100704.38;4964059;28;20421;-85
2021/08/18 01:32:56;;;;;;;5.45;4.93;;;;;;;13.68;98.35;100701.69;4946686;28;20090;-85
2021/08/18 01:35:33;;;;;;;5.75;5.13;;;;;;;13.66;98.02;100701.72;4946062;28;21321;-82
2021/08/18 01:38:02;;;;;;;6.07;5.45;;;;;;;13.63;98.31;100698.28;4962778;28;20142;-83
2021/08/18 01:40:32;;;;;;;5.78;5.15;;;;;;;13.59;98.52;100699.25;4960917;28;20138;-85
2021/08/18 01:42:59;;;;;;;6.40;5.70;;;;;;;13.55;98.69;100701.94;4929443;28;20050;-83
2021/08/18 01:45:31;;;;;;;7.32;6.20;;;;;;;13.54;99.02;100707.22;4942464;28;20062;-85
2021/08/18 01:47:58;;;;;;;7.97;5.68;;;;;;;13.51;98.83;100702.91;4914536;28;20098;-82
2021/08/18 01:50:26;;;;;;;6.10;5.47;;;;;;;13.51;98.82;100712.56;4944630;28;20063;-86
2021/08/18 01:52:55;;;;;;;6.65;5.95;;;;;;;13.50;99.23;100713.47;4920933;28;20047;-86
2021/08/18 01:55:24;;;;;;;8.27;7.25;;;;;;;13.47;99.41;100697.75;4921627;28;20070;-82
2021/08/18 01:57:52;;;;;;;7.38;6.07;;;;;;;13.47;99.37;100697.75;4923131;28;20167;-85
2021/08/18 02:00:19;;;;;;;8.00;7.20;;;;;;;13.48;99.67;100689.81;4923129;28;20055;-85
2021/08/18 02:02:46;;;;;;;9.57;7.75;;;;;;;13.49;99.58;100691.56;4941010;28;20450;-85
2021/08/18 02:05:13;;;;;;;8.20;6.93;;;;;;;13.46;99.88;100699.50;4942086;28;22654;-86
2021/08/18 02:07:40;;;;;;;8.48;6.70;;;;;;;13.43;99.88;100696.06;4919415;28;20047;-85
2021/08/18 02:10:11;;;;;;;8.15;6.97;;;;;;;13.39;99.76;100701.38;4925530;28;20054;-83
2021/08/18 02:12:42;;;;;;;8.20;6.95;;;;;;;13.36;100.00;100697.91;4910299;28;20047;-83
2021/08/18 02:15:22;;;;;;;8.15;6.57;;;;;;;13.34;100.00;100699.72;4936677;28;20046;-86
2021/08/18 02:17:49;;;;;;;7.43;6.10;;;;;;;13.32;100.00;100702.34;4929084;28;20057;-83
2021/08/18 02:20:22;;;;;;;9.15;7.15;;;;;;;13.35;100.00;100698.78;4939519;28;20047;-86
2021/08/18 02:22:49;;;;;;;5.50;4.95;;;;;;;13.37;100.00;100695.28;4938993;28;20042;-85
2021/08/18 02:25:16;;;;;;;6.07;5.47;;;;;;;13.42;100.00;100691.72;4926815;28;20055;-85
2021/08/18 02:27:43;;;;;;;7.72;5.55;;;;;;;13.50;100.00;100695.03;4923343;28;20051;-84
2021/08/18 02:30:12;;;;;;;6.80;5.80;;;;;;;13.53;100.00;100693.22;4944479;28;20062;-86
2021/08/18 02:32:38;;;;;;;6.20;5.20;;;;;;;13.57;99.84;100683.47;4937887;28;22253;-83
2021/08/18 02:35:06;;;;;;;5.68;4.95;;;;;;;13.62;99.29;100689.50;4937576;28;20051;-85
2021/08/18 02:37:33;;;;;;;6.40;5.18;;;;;;;13.63;99.31;100691.25;4907910;28;20537;-84
2021/08/18 02:39:59;;;;;;;7.18;5.70;;;;;;;13.64;99.37;100694.78;4942070;28;20078;-87
2021/08/18 02:42:26;;;;;;;5.32;4.70;;;;;;;13.64;99.31;100693.00;4923464;28;20075;-83
2021/08/18 02:44:52;;;;;;;5.95;5.10;;;;;;;13.65;99.38;100691.22;4922381;28;20051;-84
2021/08/18 02:47:19;;;;;;;6.13;4.70;;;;;;;13.68;99.38;100688.53;4954113;28;20115;-83
2021/08/18 02:49:46;;;;;;;6.10;4.60;;;;;;;13.69;99.24;100698.16;4919939;28;20048;-84
2021/08/18 02:52:12;;;;;;;7.55;4.63;;;;;;;13.70;99.27;100692.88;4963125;28;21097;-83
2021/08/18 02:54:39;;;;;;;5.70;4.70;;;;;;;13.74;99.10;100701.56;4936925;28;20051;-83
2021/08/18 02:57:05;;;;;;;5.00;4.50;;;;;;;13.76;98.83;100691.88;4953058;28;20054;-82
2021/08/18 02:59:32;;;;;;;7.57;5.03;;;;;;;13.76;98.58;100691.00;4937312;28;20125;-85
2021/08/18 03:01:59;;;;;;;6.35;5.13;;;;;;;13.76;98.96;100689.22;4957628;28;20055;-85
2021/08/18 03:04:26;;;;;;;4.55;4.03;;;;;;;13.76;98.82;100689.22;4940100;28;20051;-85
2021/08/18 03:06:54;;;;;;;5.35;4.85;;;;;;;13.77;98.98;100690.97;4942739;28;20136;-85
2021/08/18 03:09:25;;;;;;;8.13;5.97;;;;;;;13.80;98.68;100688.25;4940734;28;20065;-83
2021/08/18 03:11:53;;;;;;;5.68;5.13;;;;;;;13.82;98.66;100689.09;4926038;28;20051;-84
2021/08/18 03:14:21;;;;;;;5.82;4.50;;;;;;;13.80;98.60;100683.00;4941000;28;20054;-83
2021/08/18 03:16:49;;;;;;;7.45;5.43;;;;;;;13.79;99.07;100683.03;4927380;28;20074;-82
2021/08/18 03:19:16;;;;;;;7.47;5.22;;;;;;;13.77;98.72;100683.06;4924570;28;20521;-83
2021/08/18 03:21:42;;;;;;;6.00;5.20;;;;;;;13.73;98.89;100682.28;4921161;28;20122;-85
2021/08/18 03:24:09;;;;;;;6.57;5.32;;;;;;;13.67;99.84;100686.81;4939657;28;20126;-86
2021/08/18 03:26:36;;;;;;;5.28;4.43;;;;;;;13.67;99.90;100685.03;4920443;28;20053;-83
2021/08/18 03:29:02;;;;;;;6.70;5.60;;;;;;;13.65;99.98;100678.94;4921314;28;20143;-84
2021/08/18 03:31:30;;;;;;;7.82;5.45;;;;;;;13.64;99.91;100679.00;4943617;28;20137;-83
2021/08/18 03:33:57;;;;;;;6.88;5.32;;;;;;;13.65;99.99;100678.94;4939744;28;20065;-85
2021/08/18 03:36:24;;;;;;;6.50;5.47;;;;;;;13.67;100.00;100674.50;4925200;28;20082;-86
2021/08/18 03:38:50;;;;;;;5.22;4.47;;;;;;;13.67;99.78;100671.03;4938142;28;20716;-83
2021/08/18 03:41:17;;;;;;;6.93;5.32;;;;;;;13.69;99.82;100679.75;4941302;28;20051;-84
2021/08/18 03:43:44;;;;;;;7.28;5.40;;;;;;;13.69;99.83;100670.09;4921011;28;20086;-81
2021/08/18 03:46:10;;;;;;;6.75;5.22;;;;;;;13.69;99.71;100671.88;4937802;28;20853;-85
2021/08/18 03:48:37;;;;;;;7.45;5.63;;;;;;;13.69;99.82;100667.47;4922700;28;20054;-83
2021/08/18 03:51:04;;;;;;;7.75;5.75;;;;;;;13.71;99.50;100664.78;4950462;28;20514;-85
2021/08/18 03:53:31;;;;;;;6.35;5.03;;;;;;;13.74;99.48;100667.38;4904393;28;20066;-84
2021/08/18 03:55:57;;;;;;;6.68;5.40;;;;;;;13.77;99.43;100672.56;4946562;28;20571;-82
2021/08/18 03:58:24;;;;;;;6.75;5.57;;;;;;;13.78;99.15;100666.41;4919565;28;20418;-81
2021/08/18 04:00:50;;;;;;;6.50;5.63;;;;;;;13.79;99.16;100654.94;4925674;28;20043;-81
2021/08/18 04:03:17;;;;;;;7.97;5.75;;;;;;;13.81;99.10;100655.78;4954434;28;20065;-84
2021/08/18 04:05:47;;;;;;;7.68;6.25;;;;;;;13.82;98.75;100652.28;4938776;28;20055;-85
2021/08/18 04:08:14;;;;;;;7.00;5.60;;;;;;;13.84;98.60;100654.88;4953890;28;22256;-82
2021/08/18 04:10:41;;;;;;;8.50;6.38;;;;;;;13.88;98.42;100646.88;4952902;28;20033;-90
2021/08/18 04:13:07;;;;;;;6.15;5.32;;;;;;;13.94;98.32;100653.75;4941823;28;20481;-88
2021/08/18 04:15:40;;;;;;;7.25;5.80;;;;;;;14.00;97.77;100656.25;4949337;28;20039;-91
2021/08/18 04:18:10;;;;;;;7.50;6.05;;;;;;;14.02;97.71;100654.44;4955275;28;20061;-87
2021/08/18 04:20:40;;;;;;;8.82;6.50;;;;;;;14.04;97.78;100654.38;4925506;28;20047;-90
2021/08/18 04:23:08;;;;;;;8.07;6.32;;;;;;;14.03;97.60;100658.81;4925976;28;20122;-87
2021/08/18 04:25:35;;;;;;;9.05;6.32;;;;;;;14.03;97.72;100661.44;4942738;28;20517;-88
2021/08/18 04:28:02;;;;;;;7.57;5.55;;;;;;;14.04;97.58;100654.38;4942173;28;20597;-87
2021/08/18 04:30:29;;;;;;;7.20;5.15;;;;;;;13.98;97.96;100660.66;4925590;28;20058;-88
2021/08/18 04:33:03;;;;;;;7.68;5.75;;;;;;;13.94;98.21;100660.78;4924480;29;20153;-88
2021/08/18 04:35:29;;;;;;;8.10;6.93;;;;;;;13.89;98.23;100666.16;4939937;28;20094;-88
2021/08/18 04:37:56;;;;;;;7.75;6.47;;;;;;;13.81;98.64;100661.06;4921278;28;20483;-87
2021/08/18 04:40:23;;;;;;;8.15;6.60;;;;;;;13.75;99.20;100662.97;4923765;29;20055;-89
2021/08/18 04:42:50;;;;;;;8.20;6.50;;;;;;;13.66;99.72;100666.66;4910810;29;20051;-90
2021/08/18 04:45:18;;;;;;;7.75;6.90;;;;;;;13.58;100.00;100669.44;4923378;28;20039;-89
2021/08/18 04:47:45;;;;;;;8.15;6.82;;;;;;;13.58;100.00;100679.97;4940918;28;20055;-89
2021/08/18 04:50:14;;;;;;;8.85;7.05;;;;;;;13.68;100.00;100676.25;4923263;28;20090;-84
2021/08/18 04:52:42;;;;;;;7.32;6.43;;;;;;;13.76;100.00;100678.72;4970643;28;20142;-90
2021/08/18 04:55:09;;;;;;;8.23;7.00;;;;;;;13.90;99.57;100675.78;4939691;29;20043;-85
2021/08/18 04:57:36;;;;;;;8.88;6.78;;;;;;;13.99;98.93;100678.19;4939137;28;20055;-87
2021/08/18 05:00:05;;;;;;;7.72;6.78;;;;;;;14.05;98.41;100682.44;4939866;28;20043;-90
2021/08/18 05:02:34;;;;;;;7.63;6.82;;;;;;;14.04;98.47;100676.34;4922793;29;20047;-88
2021/08/18 05:05:05;;;;;;;8.55;6.38;;;;;;;14.06;98.11;100677.16;4955017;28;20608;-90
2021/08/18 05:07:32;;;;;;;8.63;7.03;;;;;;;14.06;98.06;100676.28;4956021;28;20058;-86
2021/08/18 05:09:59;;;;;;;8.90;6.47;;;;;;;14.01;97.97;100671.13;4938553;28;20055;-86
2021/08/18 05:12:26;;;;;;;6.15;5.55;;;;;;;13.98;98.26;100672.97;4939023;29;20062;-90
2021/08/18 05:14:53;;;;;;;7.88;6.57;;;;;;;13.98;98.60;100676.47;4936783;28;20902;-85
2021/08/18 05:17:19;;;;;;;9.05;7.35;;;;;;;13.98;98.67;100673.84;4957227;28;20146;-91
2021/08/18 05:19:46;;;;;;;9.63;7.70;;;;;;;13.98;98.46;100684.38;4961916;28;20389;-90
2021/08/18 05:22:12;;;;;;;8.07;6.82;;;;;;;13.95;98.34;100675.66;4955016;28;20065;-88
2021/08/18 05:24:39;;;;;;;9.93;7.20;;;;;;;13.90;98.38;100675.78;4957986;28;20061;-89
2021/08/18 05:27:06;;;;;;;8.18;6.57;;;;;;;13.85;98.78;100673.25;4956820;28;20046;-90
2021/08/18 05:29:33;;;;;;;9.60;7.75;;;;;;;13.84;99.07;100676.75;4959029;28;20050;-90
2021/08/18 05:32:00;;;;;;;9.57;7.28;;;;;;;13.83;99.11;100675.06;4944317;28;20059;-89
2021/08/18 05:34:26;;;;;;;8.68;6.70;;;;;;;13.83;99.13;100676.81;4955080;28;20133;-89
2021/08/18 05:36:53;;;;;;;11.65;7.80;;;;;;;13.82;99.01;100686.47;4959180;28;20046;-85
2021/08/18 05:39:20;;;;;;;8.73;6.80;;;;;;;13.84;98.93;100696.97;4944646;28;20067;-87
2021/08/18 05:41:46;;;;;;;9.82;7.40;;;;;;;13.85;98.84;100698.69;4961545;28;20054;-92
2021/08/18 05:44:16;;;;;;;8.45;7.07;;;;;;;13.87;98.78;100696.88;4959872;28;20073;-85
2021/08/18 05:46:43;;;;;;;8.50;7.45;;;;;;;13.88;98.54;100691.63;4946615;28;20061;-84
2021/08/18 05:49:10;;;;;;;7.97;6.40;;;;;;;13.97;98.47;100687.03;4975281;28;20663;-89
2021/08/18 05:51:36;;;;;;;9.68;7.07;;;;;;;14.02;98.08;100685.16;4932876;28;20055;-89
2021/08/18 05:54:03;;;;;;;7.95;6.40;;;;;;;14.05;97.50;100691.22;4945612;28;20117;-88
2021/08/18 05:56:29;;;;;;;7.80;6.43;;;;;;;14.07;97.54;100691.19;4942804;28;20403;-89
2021/08/18 05:58:56;;;;;;;21.08;7.40;;;;;;;14.15;97.34;100681.34;4943290;28;20058;-84
2021/08/18 06:01:22;;;;;;;8.82;5.80;;;;;;;14.30;97.07;100680.13;4928663;28;20110;-88
2021/08/18 06:03:49;;;;;;;5.93;5.32;;;;;;;14.48;95.33;100675.31;4937504;28;20054;-88
2021/08/18 06:06:16;;;;;;;6.53;5.50;;;;;;;14.63;94.05;100674.91;4943362;28;20058;-90
2021/08/18 06:08:43;;;;;;;6.35;5.13;;;;;;;14.78;93.58;100678.94;4928708;28;20055;-85
2021/08/18 06:11:10;;;;;;;7.75;4.93;;;;;;;14.89;92.95;100682.16;4945355;28;20141;-91
2021/08/18 06:13:36;;;;;;;8.82;4.85;;;;;;;14.93;90.66;100674.19;4960123;28;20057;-88
2021/08/18 06:16:03;;;;;;;6.65;4.60;;;;;;;14.91;90.16;100674.22;4919063;29;20194;-84
2021/08/18 06:18:29;;;;;;;4.32;3.90;;;;;;;14.81;91.05;100670.97;4924457;29;20530;-87
2021/08/18 06:20:57;;;;;;;5.43;3.97;;;;;;;14.79;91.82;100662.25;4939015;28;20126;-86
2021/08/18 06:23:26;;;;;;;4.93;4.43;;;;;;;14.87;91.91;100660.28;4924107;29;20065;-85
2021/08/18 06:25:53;;;;;;;5.50;4.50;;;;;;;15.02;91.35;100666.03;4936467;28;20134;-86
2021/08/18 06:28:21;;;;;;;4.28;3.90;;;;;;;15.21;90.72;100663.75;4922688;29;20050;-89
2021/08/18 06:30:48;;;;;;;7.03;4.85;;;;;;;15.37;88.66;100670.31;4921435;29;20271;-84
2021/08/18 06:33:14;;;;;;;5.13;4.63;;;;;;;15.42;87.62;100662.25;4910052;29;20723;-89
2021/08/18 06:35:41;;;;;;;5.45;4.28;;;;;;;15.41;87.88;100670.22;4924925;28;20043;-88
2021/08/18 06:38:08;;;;;;;5.00;4.15;;;;;;;15.32;88.17;100672.22;4925560;28;20144;-86
2021/08/18 06:40:35;;;;;;;5.75;4.88;;;;;;;15.25;88.57;100688.25;4938979;28;20087;-90
2021/08/18 06:43:01;;;;;;;6.95;5.32;;;;;;;15.21;89.22;100676.94;4922325;29;20146;-86
2021/08/18 06:45:29;;;;;;;6.15;4.50;;;;;;;15.21;89.22;100685.72;4924784;28;20086;-91
2021/08/18 06:47:56;;;;;;;7.13;4.38;;;;;;;15.26;88.96;100672.38;4943617;28;20157;-87
2021/08/18 06:50:23;;;;;;;4.05;3.67;;;;;;;15.37;88.13;100677.38;4941799;28;20054;-88
2021/08/18 06:52:50;;;;;;;4.13;3.30;;;;;;;15.55;87.81;100676.84;4923643;28;20054;-90
2021/08/18 06:55:17;;;;;;;6.05;3.55;;;;;;;15.82;86.40;100665.53;4939747;28;21636;-86
2021/08/18 06:57:43;;;;;;;5.15;3.90;;;;;;;16.08;83.52;100662.06;4939277;28;20047;-89
2021/08/18 07:00:11;;;;;;;3.70;3.22;;;;;;;16.34;82.55;100666.50;4941075;28;20058;-88
2021/08/18 07:02:46;;;;;;;4.85;3.22;;;;;;;16.79;81.47;100656.22;4940443;28;20047;-90
2021/08/18 07:05:15;;;;;;;3.92;2.40;;;;;;;17.00;79.54;100659.91;4940120;28;20258;-88
2021/08/18 07:07:41;;;;;;;4.15;2.45;;;;;;;17.09;77.58;100659.63;4946104;28;20543;-84
2021/08/18 07:10:08;;;;;;;3.47;2.78;;;;;;;17.08;76.78;100659.63;4931698;28;20521;-85
2021/08/18 07:12:35;;;;;;;4.72;2.33;;;;;;;17.01;77.31;100659.00;4941345;28;20050;-85
2021/08/18 07:15:02;;;;;;;2.88;2.00;;;;;;;17.14;76.53;100655.03;4939828;28;20093;-85
2021/08/18 07:17:29;;;;;;;3.03;2.33;;;;;;;17.16;77.07;100662.91;4921836;28;20055;-87
2021/08/18 07:19:55;;;;;;;7.18;2.90;;;;;;;17.40;77.39;100668.19;4907548;28;20065;-84
2021/08/18 07:22:22;;;;;;;3.95;2.47;;;;;;;17.52;75.04;100673.91;4904431;28;20040;-89
2021/08/18 07:24:49;;;;;;;2.85;2.00;;;;;;;17.55;74.63;100664.09;4905550;28;20507;-85
2021/08/18 07:27:16;;;;;;;2.70;2.10;;;;;;;17.53;74.46;100670.34;4933343;28;20049;-85
2021/08/18 07:29:42;;;;;;;5.30;2.05;;;;;;;17.48;75.25;100672.28;4921159;28;20096;-84
2021/08/18 07:32:10;;;;;;;3.88;1.90;;;;;;;17.40;75.34;100678.78;4928514;28;21064;-87
2021/08/18 07:34:36;;;;;;;2.95;2.00;;;;;;;17.35;74.86;100673.66;4938203;28;20110;-88
2021/08/18 07:37:03;;;;;;;1.95;1.85;;;;;;;17.38;74.90;100668.25;4924074;28;20130;-87
2021/08/18 07:39:30;;;;;;;2.53;2.08;;;;;;;17.33;74.94;100673.72;4906183;28;20050;-88
2021/08/18 07:41:56;;;;;;;1.83;1.70;;;;;;;17.32;74.78;100671.13;4922925;28;20039;-88
2021/08/18 07:44:23;;;;;;;2.00;1.77;;;;;;;17.35;74.97;100669.25;4937567;28;20498;-85
2021/08/18 07:46:51;;;;;;;5.07;2.22;;;;;;;17.19;74.60;100665.41;4921078;28;20043;-87
2021/08/18 07:49:21;;;;;;;2.25;2.03;;;;;;;17.27;73.97;100675.72;4937609;28;20055;-86
2021/08/18 07:51:48;;;;;;;1.70;1.50;;;;;;;17.33;73.62;100681.66;4922531;28;20094;-87
2021/08/18 07:54:14;;;;;;;3.10;1.77;;;;;;;17.45;73.77;100668.91;4924906;28;20087;-85
2021/08/18 07:56:41;;;;;;;2.67;2.47;;;;;;;17.49;73.22;100670.50;4939462;28;20047;-88
2021/08/18 07:59:07;;;;;;;2.10;1.60;;;;;;;17.59;73.05;100671.88;4906920;29;20065;-84
2021/08/18 08:01:34;;;;;;;2.58;2.05;;;;;;;17.75;71.69;100673.94;4921689;28;20133;-89
2021/08/18 08:04:00;;;;;;;5.68;1.88;;;;;;;17.72;70.70;100671.41;4909353;29;20087;-88
2021/08/18 08:06:27;;;;;;;3.30;1.38;;;;;;;17.73;71.67;100673.13;4928910;29;20047;-86
2021/08/18 08:08:53;;;;;;;4.32;1.60;;;;;;;17.75;71.09;100681.88;4923906;29;20059;-86
2021/08/18 08:11:20;;;;;;;6.97;1.95;;;;;;;17.76;71.08;100687.13;4938816;28;20046;-88
2021/08/18 08:13:47;;;;;;;3.72;2.42;;;;;;;17.94;70.84;100684.69;4923463;29;20515;-88
2021/08/18 08:16:14;;;;;;;2.00;1.58;;;;;;;18.09;70.28;100684.09;4941983;28;20050;-84
2021/08/18 08:18:40;;;;;;;2.92;1.85;;;;;;;18.12;69.98;100688.41;4925927;28;20051;-87
2021/08/18 08:21:10;;;;;;;1.90;1.65;;;;;;;18.12;69.34;100684.00;4936762;28;20059;-86
2021/08/18 08:23:41;;;;;;;2.08;1.58;;;;;;;18.02;70.65;100680.84;4912591;29;21851;-89
2021/08/18 08:26:08;;;;;;;4.90;2.15;;;;;;;18.19;70.25;100690.75;4926549;28;20051;-85
2021/08/18 08:28:35;;;;;;;2.30;1.48;;;;;;;18.25;69.44;100686.13;4921031;28;20061;-87
2021/08/18 08:31:01;;;;;;;1.38;1.02;;;;;;;18.33;68.28;100692.00;4923674;29;20132;-84
2021/08/18 08:33:28;;;;;;;1.73;1.63;;;;;;;18.26;69.27;100693.16;4908219;28;20311;-87
2021/08/18 08:35:55;;;;;;;3.88;2.08;;;;;;;18.09;68.82;100689.41;4909849;29;20043;-85
2021/08/18 08:38:22;;;;;;;1.30;1.20;;;;;;;18.13;68.93;100693.66;4924320;29;20051;-83
2021/08/18 08:40:49;;;;;;;2.00;1.02;;;;;;;18.17;68.71;100699.69;4936268;28;20059;-85
2021/08/18 08:43:19;;;;;;;3.72;1.77;;;;;;;18.16;68.42;100690.88;4944926;28;20054;-84
2021/08/18 08:45:47;;;;;;;2.53;1.70;;;;;;;18.07;68.40;100693.91;4928702;28;20532;-84
2021/08/18 08:48:19;;;;;;;3.67;2.00;;;;;;;17.96;68.93;100696.09;4929988;28;20430;-84
2021/08/18 08:50:49;;;;;;;4.32;1.52;;;;;;;18.10;68.75;100693.78;4959536;28;20062;-84
2021/08/18 08:53:17;;;;;;;2.92;1.33;;;;;;;18.33;68.03;100698.16;4926153;28;20105;-82
2021/08/18 08:55:44;;;;;;;1.58;1.48;;;;;;;18.41;67.89;100697.84;4961202;28;20670;-84
2021/08/18 08:58:11;;;;;;;1.92;1.60;;;;;;;18.57;67.33;100702.50;4943827;28;21165;-85
2021/08/18 09:00:37;;;;;;;2.15;1.48;;;;;;;18.47;67.78;100697.59;4928163;28;20101;-87
2021/08/18 09:03:09;;;;;;;1.92;1.50;;;;;;;18.41;67.54;100704.91;4944822;28;20141;-88
2021/08/18 09:05:36;;;;;;;3.38;1.52;;;;;;;18.15;68.18;100704.19;4957663;28;20165;-83
2021/08/18 09:08:03;;;;;;;3.22;1.42;;;;;;;17.97;69.54;100703.97;4945158;28;20134;-84
2021/08/18 09:10:30;;;;;;;2.00;1.42;;;;;;;17.90;69.52;100706.91;4942715;28;20118;-87
2021/08/18 09:13:17;;;;;;;1.70;1.60;;;;;;;17.91;69.72;100698.88;4927080;28;20109;-88
2021/08/18 09:16:03;;;;;;;1.58;1.48;;;;;;;18.10;69.22;100708.81;4923649;28;21715;-89
2021/08/18 09:18:48;;;;;;;2.53;1.48;;;;;;;18.23;68.73;100701.25;4945068;28;20066;-86
2021/08/18 09:21:37;;;;;;;1.25;1.10;;;;;;;18.39;68.55;100702.34;4948451;28;20035;-88
2021/08/18 09:24:13;;;;;;;2.55;1.42;;;;;;;18.37;68.54;100703.31;4929972;28;20046;-87
2021/08/18 09:27:06;;;;;;;1.35;1.25;;;;;;;18.19;68.36;100701.34;4961919;28;20047;-88
2021/08/18 09:29:43;;;;;;;2.17;1.10;;;;;;;18.03;69.00;100700.25;4945639;28;20748;-86
2021/08/18 09:32:31;;;;;;;3.80;2.13;;;;;;;18.15;68.02;100697.09;4960876;28;20050;-87
2021/08/18 09:35:08;;;;;;;2.80;1.40;;;;;;;18.43;66.85;100703.94;4939089;28;20506;-85
2021/08/18 09:37:44;;;;;;;1.60;1.50;;;;;;;18.49;66.80;100706.34;4959852;28;20046;-86
2021/08/18 09:40:25;;;;;;;4.53;1.17;;;;;;;18.43;65.89;100701.28;4944022;28;20153;-87
2021/08/18 09:42:53;;;;;;;2.30;1.33;;;;;;;18.17;67.05;100704.97;4946382;28;20058;-88
2021/08/18 09:45:31;;;;;;;1.20;1.20;;;;;;;17.93;67.74;100699.75;4959724;28;20054;-87
2021/08/18 09:48:05;;;;;;;2.47;1.30;;;;;;;17.88;68.61;100706.97;4931073;28;20507;-88
2021/08/18 09:50:39;;;;;;;1.25;1.20;;;;;;;18.04;67.87;100707.25;4932678;28;20126;-86
2021/08/18 09:53:11;;;;;;;1.45;1.35;;;;;;;18.12;67.68;100693.72;4975552;28;20053;-87
2021/08/18 09:55:41;;;;;;;2.00;1.63;;;;;;;18.20;68.03;100702.22;4946036;28;20069;-84
2021/08/18 09:58:25;;;;;;;1.73;0.98;;;;;;;18.33;67.46;100710.56;4978597;28;20537;-88
2021/08/18 10:00:54;;;;;;;2.08;1.33;;;;;;;18.30;67.69;100706.25;4963295;28;20153;-84
2021/08/18 10:03:21;;;;;;;2.55;1.58;;;;;;;18.16;68.17;100703.25;4981005;28;20038;-86
2021/08/18 10:05:50;;;;;;;2.33;1.40;;;;;;;18.14;68.53;100700.66;4958064;28;20110;-87
2021/08/18 10:08:19;;;;;;;2.45;1.60;;;;;;;18.25;68.36;100702.91;4987590;28;20106;-85
2021/08/18 10:10:49;;;;;;;2.45;1.27;;;;;;;18.75;66.40;100690.28;4976225;28;20050;-85
2021/08/18 10:13:17;;;;;;;4.03;2.00;;;;;;;19.19;64.21;100682.22;4962809;28;20406;-88
2021/08/18 10:15:47;;;;;;;3.55;1.67;;;;;;;19.42;63.24;100697.06;4954650;28;20074;-84
2021/08/18 10:18:29;;;;;;;1.85;1.50;;;;;;;19.53;62.75;100682.44;4982713;28;20038;-87
2021/08/18 10:21:06;;;;;;;1.55;1.45;;;;;;;19.85;62.11;100699.56;4961669;28;20046;-84
2021/08/18 10:24:03;;;;;;;1.80;1.70;;;;;;;20.20;60.24;100699.69;4950493;28;20046;-84
2021/08/18 10:26:33;;;;;;;1.75;1.23;;;;;;;20.24;60.15;100695.94;4967935;28;22272;-90
2021/08/18 10:29:31;;;;;;;3.70;1.60;;;;;;;20.49;59.33;100690.28;4960575;28;20085;-89
2021/08/18 10:32:10;;;;;;;1.63;1.10;;;;;;;20.42;59.28;100696.00;4947240;28;20055;-87
2021/08/18 10:34:51;;;;;;;1.40;1.30;;;;;;;20.26;60.31;100693.19;4972998;28;20058;-87
2021/08/18 10:37:24;;;;;;;2.30;1.40;;;;;;;20.27;59.80;100693.16;4928871;28;20038;-83
2021/08/18 10:40:14;;;;;;;3.53;1.10;;;;;;;20.39;58.72;100691.69;4943533;28;20056;-88
2021/08/18 10:42:44;;;;;;;3.13;1.30;;;;;;;20.28;58.92;100688.69;4959193;28;20133;-86
2021/08/18 10:45:20;;;;;;;1.63;1.30;;;;;;;20.00;60.03;100682.91;4960423;28;20054;-89
2021/08/18 10:47:47;;;;;;;1.95;1.00;;;;;;;19.70;61.32;100671.03;4943788;28;20051;-87
2021/08/18 10:50:15;;;;;;;0.93;0.90;;;;;;;19.49;62.01;100682.59;4945982;28;20047;-85
2021/08/18 10:52:45;;;;;;;1.40;1.30;;;;;;;19.63;61.66;100694.38;4929219;28;20099;-83
2021/08/18 10:55:14;;;;;;;1.17;0.90;;;;;;;19.83;61.01;100696.16;4943429;28;20073;-87
2021/08/18 10:57:49;;;;;;;1.83;0.70;;;;;;;19.87;60.04;100696.84;4945275;28;20051;-87
2021/08/18 11:00:34;;;;;;;2.08;0.75;;;;;;;19.63;60.77;100705.88;4939615;28;20127;-84
2021/08/18 11:03:26;;;;;;;1.45;0.80;;;;;;;19.66;60.78;100694.25;4940609;28;20054;-83
2021/08/18 11:05:55;;;;;;;0.90;0.90;;;;;;;19.72;60.75;100691.28;4941499;28;20055;-86
2021/08/18 11:08:38;;;;;;;1.45;0.75;;;;;;;19.36;61.47;100697.38;4925243;28;20055;-87
2021/08/18 11:11:06;;;;;;;1.50;0.60;;;;;;;19.55;60.96;100683.25;4957595;28;20123;-86
2021/08/18 11:13:54;;;;;;;0.57;0.57;;;;;;;19.64;60.60;100696.09;4957106;28;20050;-85
2021/08/18 11:16:32;;;;;;;0.75;0.60;;;;;;;19.81;60.02;100693.53;4916486;28;20055;-85
2021/08/18 11:19:04;;;;;;;0.95;0.50;;;;;;;19.73;59.52;100692.16;4923263;28;20054;-88
2021/08/18 11:21:43;;;;;;;2.17;0.50;;;;;;;19.46;60.61;100696.03;4941306;29;20074;-87
2021/08/18 11:24:17;;;;;;;1.20;0.47;;;;;;;19.12;60.93;100705.47;4908392;28;20129;-89
2021/08/18 11:26:45;;;;;;;;;;;;;;;18.90;62.17;100689.63;4944315;28;20067;-83
2021/08/18 11:29:19;;;;;;;0.95;0.47;;;;;;;18.96;62.33;100697.31;4925776;29;19931;-88
2021/08/18 11:31:54;;;;;;;2.10;0.45;;;;;;;18.96;63.09;100693.81;4944636;28;20051;-84
2021/08/18 11:34:34;;;;;;;1.27;0.77;;;;;;;18.94;63.33;100704.50;4940746;28;21014;-88